Airfield :
LOGIN :

Register | Disclaimer

   EN    FR    IT 

 










Legend :    VFR   Marginal VFR   IFR   Intensive IFR   Very Intensive IFR
Visi :
Ceiling :
>= 8 km
>= 3000ft
5 to 8 km
1000 to 3000 ft
1500m to 5 km
500 to 1000 ft
800 to 1500m
200 to 500 ft
< 800m
< 200 ft
Symbols :   Thunderstorms  Fog  Heavy snow  Heavy precipitations  Wind > 20 kt
SIGMETs :     Misc.  Thunderstorms  Icing  Turbulence  Mountain Waves  Volcanic Ashes






- Airport Elevation : 17 ft
- IATA code : GRQ


EHGG - Groningen Eelde

CURRENT METAR :
  • 290755Z AUTO 24005KT 2400 BR BKN000 OVC002 06/06 Q1016 BECMG 5000 BKN003

EXPIRED METARs :
  • 290725Z AUTO 23006KT 2000 BR OVC001 06/06 Q1016 BECMG 3000 BKN003
  • 290655Z AUTO 24006KT 1400 R23/P2000N BR OVC001 06/06 Q1016 BECMG 3000 BKN003
  • 290625Z AUTO 24006KT 1400 R23/1900U BR OVC000 06/06 Q1015 BECMG 2000 BKN002
  • 290555Z AUTO 25005KT 1500 BR OVC000 06/06 Q1015 NOSIG
  • 290525Z AUTO 22003KT 0550 R23/0750D FG OVC000 06/06 Q1015 NOSIG

TAF TAF EHGG
Valid from the 29 at 06:00 until the 30 at 12:00 UTC


290521Z 2906/3012 22005KT 0700 FG VV001
BECMG 2907/2910 8000 NSW BKN015
PROB30
TEMPO 2910/3008 3000 BR BKN003



MET'MAP, your aeronautical weather chart ! - Copyright ORBIFLY December 2007 - Disclaimer

ORBIFLY MET'MAP TEAM :

Programming & Development : Alexandra Zaïnal
Original concept : Baudouin d'Aumeries
Technical & hardware support : Manuel Goepfert
Assistance : Marc-Olivier Méhu




SOURCES & CREDITS :

   NOAA